GMTN  Saniat Rmel Airport

Add Bookmark

Morocco

Status IATA
Operational TTU
Latitude Longitude
35° 35' 39" N 5° 19' 12" W
35.594299 -5.320020
Local (DST + 1) UTC (GMT 0)
Nov 27, 2014 03:50 Nov 27, 2014 15:50
Sunrise-Sunset Local UTC
Begin Civil Twilight 06:39 06:39
Sunrise 07:07 07:07
Sunset 05:10 17:10
End Civil Twilight 05:38 17:38

Current Weather

METAR Observed MVFR
GMTN 271500Z 22009G21KT 160V280 8000 SCT020 SCT100 17/07 Q0998 NOSIG Thu, Nov 27, 2014 @ 15:00 UTC
(50 Minutes ago)
Marginal Visual Flight Rules
Wind Visibility Clouds Conditions
220° at 9 knots (17 kph)
Gusting to 21 knots (39 kph)
8000 meters
  • Scattered at 2,000' AGL
  • Scattered at 10,000' AGL
  • No significant weather
Temperatures Readings Precipitation
Current Temp 17°C (63°F)
Dewpoint 7°C (45°F)
Humidity 52%
Altimeter 29.47"Hg
Sea Level Pressure 998mb
Field Elevation 32.81'
None Recorded

Additional weather within a 92.6km radius of GMTN

Map ICAO Location
GMTT 55.9km W (285°)
LXGB 61.9km N (360°)

24 Hour Weather History

Loading
-

24 Hour Weather Graphs

Loading
-

CheckWX.com is intended as a tool to help pilots better visualize weather data. It is not intended as a substitute for an official weather briefing obtained from a Flight Service Station. CheckWX.com does not meet the FAA requirements for an official pre-flight weather briefing. Therefore, it's important that pilots still call and obtain an official FSS pre-flight weather briefing.